sensor_id;sensor_type;location;lat;lon;timestamp;pressure;altitude;pressure_sealevel;temperature;humidity
71559;BME280;59382;43.852;25.952;2023-02-18T00:00:56;101791.69;;;9.90;48.01
71559;BME280;59382;43.852;25.952;2023-02-18T00:03:23;101781.31;;;9.79;48.21
71559;BME280;59382;43.852;25.952;2023-02-18T00:05:50;101759.16;;;9.69;48.22
71559;BME280;59382;43.852;25.952;2023-02-18T00:08:16;101782.44;;;9.85;47.98
71559;BME280;59382;43.852;25.952;2023-02-18T00:10:41;101739.28;;;9.70;48.03
71559;BME280;59382;43.852;25.952;2023-02-18T00:13:07;101772.47;;;9.93;48.16
71559;BME280;59382;43.852;25.952;2023-02-18T00:15:37;101766.69;;;9.96;48.04
71559;BME280;59382;43.852;25.952;2023-02-18T00:18:05;101748.81;;;9.95;47.96
71559;BME280;59382;43.852;25.952;2023-02-18T00:20:31;101738.13;;;9.87;47.70
71559;BME280;59382;43.852;25.952;2023-02-18T00:23:01;101750.16;;;9.99;47.89
71559;BME280;59382;43.852;25.952;2023-02-18T00:25:27;101754.69;;;9.99;48.15
71559;BME280;59382;43.852;25.952;2023-02-18T00:27:53;101751.47;;;10.03;48.01
71559;BME280;59382;43.852;25.952;2023-02-18T00:30:18;101738.53;;;9.99;47.64
71559;BME280;59382;43.852;25.952;2023-02-18T00:32:44;101729.69;;;9.90;47.60
71559;BME280;59382;43.852;25.952;2023-02-18T00:35:10;101731.47;;;9.98;47.51
71559;BME280;59382;43.852;25.952;2023-02-18T00:37:35;101728.22;;;10.02;47.58
71559;BME280;59382;43.852;25.952;2023-02-18T00:40:01;101722.47;;;10.06;47.67
71559;BME280;59382;43.852;25.952;2023-02-18T00:42:26;101697.91;;;10.00;47.59
71559;BME280;59382;43.852;25.952;2023-02-18T00:44:52;101682.09;;;9.97;47.09
71559;BME280;59382;43.852;25.952;2023-02-18T00:47:17;101697.38;;;10.20;47.36
71559;BME280;59382;43.852;25.952;2023-02-18T00:49:43;101701.03;;;10.27;46.94
71559;BME280;59382;43.852;25.952;2023-02-18T00:52:08;101697.94;;;10.30;47.25
71559;BME280;59382;43.852;25.952;2023-02-18T00:54:33;101685.84;;;10.26;47.10
71559;BME280;59382;43.852;25.952;2023-02-18T00:56:59;101678.88;;;10.17;46.76
71559;BME280;59382;43.852;25.952;2023-02-18T00:59:25;101680.19;;;10.21;46.68
71559;BME280;59382;43.852;25.952;2023-02-18T01:01:50;101682.34;;;10.25;46.78
71559;BME280;59382;43.852;25.952;2023-02-18T01:04:17;101658.63;;;10.21;47.06
71559;BME280;59382;43.852;25.952;2023-02-18T01:06:42;101651.72;;;10.18;46.62
71559;BME280;59382;43.852;25.952;2023-02-18T01:09:08;101660.28;;;10.22;46.49
71559;BME280;59382;43.852;25.952;2023-02-18T01:11:34;101679.72;;;10.32;46.62
71559;BME280;59382;43.852;25.952;2023-02-18T01:14:00;101630.44;;;10.09;46.39
71559;BME280;59382;43.852;25.952;2023-02-18T01:16:25;101661.50;;;10.34;46.51
71559;BME280;59382;43.852;25.952;2023-02-18T01:18:51;101666.88;;;10.34;46.87
71559;BME280;59382;43.852;25.952;2023-02-18T01:21:17;101640.38;;;10.23;46.87
71559;BME280;59382;43.852;25.952;2023-02-18T01:23:43;101643.06;;;10.23;46.52
71559;BME280;59382;43.852;25.952;2023-02-18T01:26:09;101654.16;;;10.28;46.60
71559;BME280;59382;43.852;25.952;2023-02-18T01:28:35;101653.47;;;10.26;46.83
71559;BME280;59382;43.852;25.952;2023-02-18T01:31:06;101645.38;;;10.26;46.52
71559;BME280;59382;43.852;25.952;2023-02-18T01:33:33;101639.19;;;10.25;46.59
71559;BME280;59382;43.852;25.952;2023-02-18T01:35:59;101615.47;;;10.21;46.45
71559;BME280;59382;43.852;25.952;2023-02-18T01:38:24;101641.94;;;10.32;46.33
71559;BME280;59382;43.852;25.952;2023-02-18T01:40:51;101639.63;;;10.29;46.19
71559;BME280;59382;43.852;25.952;2023-02-18T01:43:18;101652.38;;;10.35;46.24
71559;BME280;59382;43.852;25.952;2023-02-18T01:46:11;101646.88;;;10.43;45.96
71559;BME280;59382;43.852;25.952;2023-02-18T01:48:56;101650.50;;;10.50;45.84
71559;BME280;59382;43.852;25.952;2023-02-18T01:51:29;101651.78;;;10.54;46.08
71559;BME280;59382;43.852;25.952;2023-02-18T01:56:38;101644.72;;;10.53;45.23
71559;BME280;59382;43.852;25.952;2023-02-18T01:59:10;101644.34;;;10.56;45.32
71559;BME280;59382;43.852;25.952;2023-02-18T02:01:37;101633.94;;;10.53;45.24
71559;BME280;59382;43.852;25.952;2023-02-18T02:04:03;101627.63;;;10.46;45.23
71559;BME280;59382;43.852;25.952;2023-02-18T02:06:29;101633.94;;;10.53;44.95
71559;BME280;59382;43.852;25.952;2023-02-18T02:08:58;101622.94;;;10.54;45.08
71559;BME280;59382;43.852;25.952;2023-02-18T02:20:14;101618.00;;;10.58;44.78
71559;BME280;59382;43.852;25.952;2023-02-18T02:40:15;101561.25;;;10.51;43.70
71559;BME280;59382;43.852;25.952;2023-02-18T02:48:14;101549.84;;;10.35;43.69
71559;BME280;59382;43.852;25.952;2023-02-18T02:50:53;101580.59;;;10.55;43.58
71559;BME280;59382;43.852;25.952;2023-02-18T02:53:25;101584.06;;;10.49;44.06
71559;BME280;59382;43.852;25.952;2023-02-18T02:55:51;101606.56;;;10.56;44.01
71559;BME280;59382;43.852;25.952;2023-02-18T02:58:21;101586.00;;;10.40;43.95
71559;BME280;59382;43.852;25.952;2023-02-18T03:07:57;101594.47;;;10.52;43.59
71559;BME280;59382;43.852;25.952;2023-02-18T03:16:52;101601.53;;;10.53;44.30
71559;BME280;59382;43.852;25.952;2023-02-18T03:19:41;101601.91;;;10.50;44.02
71559;BME280;59382;43.852;25.952;2023-02-18T03:22:31;101589.75;;;10.39;44.00
71559;BME280;59382;43.852;25.952;2023-02-18T03:25:00;101591.50;;;10.47;44.55
71559;BME280;59382;43.852;25.952;2023-02-18T03:27:54;101585.63;;;10.43;44.72
71559;BME280;59382;43.852;25.952;2023-02-18T03:30:28;101589.56;;;10.41;44.65
71559;BME280;59382;43.852;25.952;2023-02-18T03:32:58;101575.78;;;10.36;44.76
71559;BME280;59382;43.852;25.952;2023-02-18T03:35:25;101558.50;;;10.30;45.01
71559;BME280;59382;43.852;25.952;2023-02-18T03:37:55;101561.78;;;10.26;44.81
71559;BME280;59382;43.852;25.952;2023-02-18T03:40:27;101546.53;;;10.18;44.81
71559;BME280;59382;43.852;25.952;2023-02-18T03:42:53;101571.91;;;10.38;44.87
71559;BME280;59382;43.852;25.952;2023-02-18T03:45:19;101574.41;;;10.40;45.04
71559;BME280;59382;43.852;25.952;2023-02-18T03:47:45;101569.38;;;10.37;44.71
71559;BME280;59382;43.852;25.952;2023-02-18T03:50:10;101560.63;;;10.35;44.95
71559;BME280;59382;43.852;25.952;2023-02-18T03:52:36;101575.88;;;10.42;44.88
71559;BME280;59382;43.852;25.952;2023-02-18T03:55:04;101568.63;;;10.43;45.12
71559;BME280;59382;43.852;25.952;2023-02-18T03:57:29;101556.16;;;10.42;45.15
71559;BME280;59382;43.852;25.952;2023-02-18T03:59:55;101523.63;;;10.29;45.09
71559;BME280;59382;43.852;25.952;2023-02-18T04:02:21;101534.03;;;10.32;45.07
71559;BME280;59382;43.852;25.952;2023-02-18T04:04:46;101531.53;;;10.30;45.24
71559;BME280;59382;43.852;25.952;2023-02-18T04:07:12;101535.69;;;10.33;45.41
71559;BME280;59382;43.852;25.952;2023-02-18T04:09:37;101522.78;;;10.28;45.32
71559;BME280;59382;43.852;25.952;2023-02-18T04:12:03;101489.25;;;10.01;45.62
71559;BME280;59382;43.852;25.952;2023-02-18T04:14:28;101517.81;;;10.11;45.74
71559;BME280;59382;43.852;25.952;2023-02-18T04:16:54;101511.13;;;10.07;45.86
71559;BME280;59382;43.852;25.952;2023-02-18T04:19:19;101525.53;;;10.14;45.65
71559;BME280;59382;43.852;25.952;2023-02-18T04:21:45;101510.19;;;9.99;46.02
71559;BME280;59382;43.852;25.952;2023-02-18T04:24:10;101530.84;;;10.07;45.60
71559;BME280;59382;43.852;25.952;2023-02-18T04:26:36;101506.16;;;9.95;45.62
71559;BME280;59382;43.852;25.952;2023-02-18T04:29:01;101516.19;;;10.01;45.64
71559;BME280;59382;43.852;25.952;2023-02-18T04:31:27;101517.53;;;10.06;45.49
71559;BME280;59382;43.852;25.952;2023-02-18T04:33:53;101517.19;;;10.09;45.17
71559;BME280;59382;43.852;25.952;2023-02-18T04:36:18;101510.94;;;10.08;45.47
71559;BME280;59382;43.852;25.952;2023-02-18T04:38:44;101507.00;;;10.11;45.39
71559;BME280;59382;43.852;25.952;2023-02-18T04:41:09;101499.78;;;10.11;45.17
71559;BME280;59382;43.852;25.952;2023-02-18T04:43:37;101507.81;;;10.26;45.41
71559;BME280;59382;43.852;25.952;2023-02-18T04:46:03;101487.28;;;10.25;45.07
71559;BME280;59382;43.852;25.952;2023-02-18T04:48:29;101499.25;;;10.37;44.71
71559;BME280;59382;43.852;25.952;2023-02-18T04:50:56;101506.97;;;10.40;44.90
71559;BME280;59382;43.852;25.952;2023-02-18T04:53:22;101493.75;;;10.30;44.81
71559;BME280;59382;43.852;25.952;2023-02-18T04:55:51;101481.88;;;10.25;44.51
71559;BME280;59382;43.852;25.952;2023-02-18T04:58:17;101490.50;;;10.35;44.29
71559;BME280;59382;43.852;25.952;2023-02-18T05:00:43;101491.78;;;10.39;44.25
71559;BME280;59382;43.852;25.952;2023-02-18T05:03:09;101483.50;;;10.40;43.87
71559;BME280;59382;43.852;25.952;2023-02-18T05:05:34;101476.38;;;10.54;43.60
71559;BME280;59382;43.852;25.952;2023-02-18T05:08:00;101475.59;;;10.60;43.88
71559;BME280;59382;43.852;25.952;2023-02-18T05:10:26;101473.56;;;10.62;43.21
71559;BME280;59382;43.852;25.952;2023-02-18T05:12:51;101478.44;;;10.73;43.45
71559;BME280;59382;43.852;25.952;2023-02-18T05:15:17;101467.69;;;10.79;43.15
71559;BME280;59382;43.852;25.952;2023-02-18T05:17:43;101457.72;;;10.80;43.04
71559;BME280;59382;43.852;25.952;2023-02-18T05:20:10;101465.25;;;10.84;43.42
71559;BME280;59382;43.852;25.952;2023-02-18T05:22:36;101487.16;;;10.96;43.50
71559;BME280;59382;43.852;25.952;2023-02-18T05:25:03;101491.13;;;11.00;43.55
71559;BME280;59382;43.852;25.952;2023-02-18T05:27:28;101504.44;;;11.01;43.58
71559;BME280;59382;43.852;25.952;2023-02-18T05:29:54;101496.53;;;11.00;43.79
71559;BME280;59382;43.852;25.952;2023-02-18T05:32:20;101476.28;;;10.89;43.66
71559;BME280;59382;43.852;25.952;2023-02-18T05:34:46;101491.09;;;10.93;43.78
71559;BME280;59382;43.852;25.952;2023-02-18T05:37:11;101504.81;;;10.98;43.77
71559;BME280;59382;43.852;25.952;2023-02-18T05:39:39;101512.34;;;11.03;43.86
71559;BME280;59382;43.852;25.952;2023-02-18T05:42:05;101508.81;;;11.02;43.86
71559;BME280;59382;43.852;25.952;2023-02-18T05:44:30;101491.31;;;10.98;43.60
71559;BME280;59382;43.852;25.952;2023-02-18T05:47:08;101501.13;;;11.06;43.41
71559;BME280;59382;43.852;25.952;2023-02-18T05:49:35;101507.66;;;11.11;43.55
71559;BME280;59382;43.852;25.952;2023-02-18T05:52:01;101498.06;;;11.09;43.24
71559;BME280;59382;43.852;25.952;2023-02-18T05:54:27;101501.28;;;11.19;43.46
71559;BME280;59382;43.852;25.952;2023-02-18T05:56:53;101486.22;;;11.10;43.30
71559;BME280;59382;43.852;25.952;2023-02-18T05:59:19;101495.34;;;11.09;43.56
71559;BME280;59382;43.852;25.952;2023-02-18T06:01:46;101499.75;;;11.10;43.09
71559;BME280;59382;43.852;25.952;2023-02-18T06:04:12;101502.28;;;11.18;43.57
71559;BME280;59382;43.852;25.952;2023-02-18T06:06:38;101504.34;;;11.16;43.29
71559;BME280;59382;43.852;25.952;2023-02-18T06:09:07;101470.28;;;10.94;43.24
71559;BME280;59382;43.852;25.952;2023-02-18T06:11:33;101479.72;;;11.04;43.43
71559;BME280;59382;43.852;25.952;2023-02-18T06:13:58;101510.63;;;11.23;43.05
71559;BME280;59382;43.852;25.952;2023-02-18T06:16:24;101519.16;;;11.26;43.54
71559;BME280;59382;43.852;25.952;2023-02-18T06:18:50;101520.47;;;11.30;43.14
71559;BME280;59382;43.852;25.952;2023-02-18T06:21:16;101527.53;;;11.31;43.63
71559;BME280;59382;43.852;25.952;2023-02-18T06:23:41;101522.38;;;11.36;43.31
71559;BME280;59382;43.852;25.952;2023-02-18T06:26:07;101527.19;;;11.41;43.10
71559;BME280;59382;43.852;25.952;2023-02-18T06:28:33;101519.72;;;11.43;43.16
71559;BME280;59382;43.852;25.952;2023-02-18T06:30:59;101515.34;;;11.42;42.82
71559;BME280;59382;43.852;25.952;2023-02-18T06:33:24;101522.28;;;11.51;42.78
71559;BME280;59382;43.852;25.952;2023-02-18T06:35:58;101526.44;;;11.53;42.82
71559;BME280;59382;43.852;25.952;2023-02-18T06:38:24;101516.47;;;11.54;42.81
71559;BME280;59382;43.852;25.952;2023-02-18T06:40:50;101509.00;;;11.56;42.92
71559;BME280;59382;43.852;25.952;2023-02-18T06:43:16;101525.66;;;11.59;42.83
71559;BME280;59382;43.852;25.952;2023-02-18T06:45:41;101494.78;;;11.41;42.66
71559;BME280;59382;43.852;25.952;2023-02-18T06:48:07;101544.47;;;11.74;42.87
71559;BME280;59382;43.852;25.952;2023-02-18T06:50:32;101507.19;;;11.63;42.63
71559;BME280;59382;43.852;25.952;2023-02-18T06:52:58;101521.63;;;11.76;42.40
71559;BME280;59382;43.852;25.952;2023-02-18T06:55:24;101523.16;;;11.85;42.31
71559;BME280;59382;43.852;25.952;2023-02-18T06:57:50;101510.03;;;11.89;41.87
71559;BME280;59382;43.852;25.952;2023-02-18T07:00:15;101523.50;;;12.23;41.80
71559;BME280;59382;43.852;25.952;2023-02-18T07:02:41;101524.38;;;12.30;42.04
71559;BME280;59382;43.852;25.952;2023-02-18T07:05:07;101525.59;;;12.28;41.85
71559;BME280;59382;43.852;25.952;2023-02-18T07:07:33;101522.69;;;12.29;41.76
71559;BME280;59382;43.852;25.952;2023-02-18T07:09:58;101525.22;;;12.37;41.83
71559;BME280;59382;43.852;25.952;2023-02-18T07:12:24;101533.41;;;12.63;41.45
71559;BME280;59382;43.852;25.952;2023-02-18T07:14:52;101520.31;;;12.73;41.01
71559;BME280;59382;43.852;25.952;2023-02-18T07:17:18;101522.19;;;12.86;41.29
71559;BME280;59382;43.852;25.952;2023-02-18T07:19:43;101529.94;;;12.95;41.01
71559;BME280;59382;43.852;25.952;2023-02-18T07:22:09;101517.25;;;13.02;40.68
71559;BME280;59382;43.852;25.952;2023-02-18T07:24:35;101523.06;;;13.12;40.68
71559;BME280;59382;43.852;25.952;2023-02-18T07:27:01;101525.78;;;13.12;40.68
71559;BME280;59382;43.852;25.952;2023-02-18T07:29:27;101533.94;;;13.25;41.11
71559;BME280;59382;43.852;25.952;2023-02-18T07:31:55;101527.06;;;13.29;40.92
71559;BME280;59382;43.852;25.952;2023-02-18T07:34:20;101516.22;;;13.16;41.00
71559;BME280;59382;43.852;25.952;2023-02-18T07:36:46;101504.53;;;13.09;40.85
71559;BME280;59382;43.852;25.952;2023-02-18T07:39:11;101506.63;;;13.07;41.00
71559;BME280;59382;43.852;25.952;2023-02-18T07:41:37;101508.69;;;13.18;41.15
71559;BME280;59382;43.852;25.952;2023-02-18T07:44:03;101507.84;;;13.24;41.11
71559;BME280;59382;43.852;25.952;2023-02-18T07:46:28;101514.31;;;13.36;40.87
71559;BME280;59382;43.852;25.952;2023-02-18T07:48:55;101497.25;;;13.36;40.55
71559;BME280;59382;43.852;25.952;2023-02-18T07:51:21;101511.41;;;13.51;40.52
71559;BME280;59382;43.852;25.952;2023-02-18T07:53:47;101501.38;;;13.51;40.19
71559;BME280;59382;43.852;25.952;2023-02-18T07:56:12;101498.66;;;13.58;39.95
71559;BME280;59382;43.852;25.952;2023-02-18T07:58:38;101496.16;;;13.56;40.08
71559;BME280;59382;43.852;25.952;2023-02-18T08:01:09;101493.41;;;13.63;40.08
71559;BME280;59382;43.852;25.952;2023-02-18T08:03:36;101493.19;;;13.77;39.96
71559;BME280;59382;43.852;25.952;2023-02-18T08:06:03;101507.72;;;13.96;39.83
71559;BME280;59382;43.852;25.952;2023-02-18T08:08:30;101500.38;;;14.03;39.70
71559;BME280;59382;43.852;25.952;2023-02-18T08:10:58;101482.66;;;14.01;39.36
71559;BME280;59382;43.852;25.952;2023-02-18T08:13:23;101493.88;;;14.11;39.47
71559;BME280;59382;43.852;25.952;2023-02-18T08:15:49;101480.72;;;14.08;39.35
71559;BME280;59382;43.852;25.952;2023-02-18T08:18:17;101499.88;;;14.26;39.36
71559;BME280;59382;43.852;25.952;2023-02-18T08:20:42;101483.78;;;14.31;39.19
71559;BME280;59382;43.852;25.952;2023-02-18T08:23:09;101486.50;;;14.31;38.94
71559;BME280;59382;43.852;25.952;2023-02-18T08:25:35;101493.06;;;14.48;38.91
71559;BME280;59382;43.852;25.952;2023-02-18T08:28:01;101492.66;;;14.51;39.06
71559;BME280;59382;43.852;25.952;2023-02-18T08:30:26;101501.63;;;14.51;39.10
71559;BME280;59382;43.852;25.952;2023-02-18T08:32:52;101480.00;;;14.38;38.60
71559;BME280;59382;43.852;25.952;2023-02-18T08:35:18;101468.72;;;14.35;39.08
71559;BME280;59382;43.852;25.952;2023-02-18T08:37:43;101475.84;;;14.36;39.08
71559;BME280;59382;43.852;25.952;2023-02-18T08:40:10;101480.41;;;14.42;39.29
71559;BME280;59382;43.852;25.952;2023-02-18T08:42:35;101482.59;;;14.58;39.10
71559;BME280;59382;43.852;25.952;2023-02-18T08:45:01;101473.13;;;14.67;38.88
71559;BME280;59382;43.852;25.952;2023-02-18T08:47:27;101476.41;;;14.75;38.59
71559;BME280;59382;43.852;25.952;2023-02-18T08:49:53;101473.66;;;14.82;38.75
71559;BME280;59382;43.852;25.952;2023-02-18T08:52:19;101471.38;;;14.79;38.51
71559;BME280;59382;43.852;25.952;2023-02-18T08:54:45;101464.66;;;14.81;38.55
71559;BME280;59382;43.852;25.952;2023-02-18T08:57:10;101463.03;;;14.74;38.67
71559;BME280;59382;43.852;25.952;2023-02-18T08:59:36;101469.34;;;14.68;38.51
71559;BME280;59382;43.852;25.952;2023-02-18T09:02:01;101468.13;;;14.64;38.74
71559;BME280;59382;43.852;25.952;2023-02-18T09:04:27;101468.56;;;14.61;38.69
71559;BME280;59382;43.852;25.952;2023-02-18T09:06:54;101464.34;;;14.65;38.50
71559;BME280;59382;43.852;25.952;2023-02-18T09:09:20;101473.13;;;14.67;37.92
71559;BME280;59382;43.852;25.952;2023-02-18T09:11:46;101466.63;;;14.68;38.25
71559;BME280;59382;43.852;25.952;2023-02-18T09:14:12;101468.13;;;14.64;38.22
71559;BME280;59382;43.852;25.952;2023-02-18T09:16:38;101446.44;;;14.57;38.41
71559;BME280;59382;43.852;25.952;2023-02-18T09:19:04;101467.69;;;14.67;38.37
71559;BME280;59382;43.852;25.952;2023-02-18T09:21:31;101479.59;;;14.66;38.50
71559;BME280;59382;43.852;25.952;2023-02-18T09:23:57;101468.13;;;14.64;38.58
71559;BME280;59382;43.852;25.952;2023-02-18T09:26:23;101457.31;;;14.57;38.57
71559;BME280;59382;43.852;25.952;2023-02-18T09:28:50;101474.59;;;14.63;38.50
71559;BME280;59382;43.852;25.952;2023-02-18T09:31:19;101473.13;;;14.67;38.64
71559;BME280;59382;43.852;25.952;2023-02-18T09:33:49;101443.06;;;14.62;38.93
71559;BME280;59382;43.852;25.952;2023-02-18T09:36:18;101451.84;;;14.64;38.96
71559;BME280;59382;43.852;25.952;2023-02-18T09:38:53;101463.47;;;14.71;38.68
71559;BME280;59382;43.852;25.952;2023-02-18T09:41:49;101444.28;;;14.66;38.98
71559;BME280;59382;43.852;25.952;2023-02-18T09:44:23;101465.31;;;14.77;38.96
71559;BME280;59382;43.852;25.952;2023-02-18T09:47:18;101458.47;;;14.68;38.85
71559;BME280;59382;43.852;25.952;2023-02-18T09:50:04;101480.13;;;14.81;38.66
71559;BME280;59382;43.852;25.952;2023-02-18T09:52:35;101465.94;;;14.79;38.57
71559;BME280;59382;43.852;25.952;2023-02-18T09:55:43;101475.50;;;14.88;38.46
71559;BME280;59382;43.852;25.952;2023-02-18T09:58:14;101472.31;;;14.91;38.41
71559;BME280;59382;43.852;25.952;2023-02-18T10:00:43;101465.81;;;14.92;38.28
71559;BME280;59382;43.852;25.952;2023-02-18T10:03:14;101468.31;;;14.93;38.59
71559;BME280;59382;43.852;25.952;2023-02-18T10:08:49;101451.50;;;15.03;38.22
71559;BME280;59382;43.852;25.952;2023-02-18T10:11:22;101461.94;;;15.06;38.02
71559;BME280;59382;43.852;25.952;2023-02-18T10:13:49;101452.75;;;15.07;38.25
71559;BME280;59382;43.852;25.952;2023-02-18T10:16:17;101448.97;;;15.08;38.39
71559;BME280;59382;43.852;25.952;2023-02-18T10:18:45;101428.53;;;14.99;38.18
71559;BME280;59382;43.852;25.952;2023-02-18T10:21:28;101447.75;;;15.04;38.25
71559;BME280;59382;43.852;25.952;2023-02-18T10:26:50;101425.06;;;14.92;38.46
71559;BME280;59382;43.852;25.952;2023-02-18T10:29:17;101433.13;;;14.98;38.60
71559;BME280;59382;43.852;25.952;2023-02-18T10:31:51;101422.13;;;14.93;38.73
71559;BME280;59382;43.852;25.952;2023-02-18T10:34:38;101420.22;;;14.94;38.53
71559;BME280;59382;43.852;25.952;2023-02-18T10:42:48;101426.13;;;14.91;39.00
71559;BME280;59382;43.852;25.952;2023-02-18T10:50:41;101423.06;;;14.81;39.28
71559;BME280;59382;43.852;25.952;2023-02-18T10:55:45;101380.16;;;14.65;39.44
71559;BME280;59382;43.852;25.952;2023-02-18T11:00:50;101401.19;;;14.76;39.63
71559;BME280;59382;43.852;25.952;2023-02-18T11:03:22;101395.75;;;14.76;39.71
71559;BME280;59382;43.852;25.952;2023-02-18T11:05:55;101406.00;;;14.74;39.84
71559;BME280;59382;43.852;25.952;2023-02-18T11:08:26;101388.25;;;14.71;39.61
71559;BME280;59382;43.852;25.952;2023-02-18T11:10:52;101387.00;;;14.67;39.92
71559;BME280;59382;43.852;25.952;2023-02-18T11:13:28;101373.28;;;14.62;39.86
71559;BME280;59382;43.852;25.952;2023-02-18T11:16:02;101391.56;;;14.73;39.95
71559;BME280;59382;43.852;25.952;2023-02-18T11:18:37;101380.16;;;14.65;40.04
71559;BME280;59382;43.852;25.952;2023-02-18T11:21:22;101394.72;;;14.70;40.14
71559;BME280;59382;43.852;25.952;2023-02-18T11:23:52;101369.91;;;14.67;40.26
71559;BME280;59382;43.852;25.952;2023-02-18T11:26:31;101387.84;;;14.68;40.71
71559;BME280;59382;43.852;25.952;2023-02-18T11:29:18;101372.66;;;14.60;40.28
71559;BME280;59382;43.852;25.952;2023-02-18T11:31:49;101381.59;;;14.67;40.46
71559;BME280;59382;43.852;25.952;2023-02-18T11:34:18;101387.84;;;14.68;40.75
71559;BME280;59382;43.852;25.952;2023-02-18T11:36:45;101385.59;;;14.65;40.83
71559;BME280;59382;43.852;25.952;2023-02-18T11:39:23;101378.88;;;14.67;40.66
71559;BME280;59382;43.852;25.952;2023-02-18T11:49:42;101364.03;;;14.70;41.00
71559;BME280;59382;43.852;25.952;2023-02-18T11:54:40;101367.34;;;14.72;40.72
71559;BME280;59382;43.852;25.952;2023-02-18T11:57:10;101362.75;;;14.72;41.00
71559;BME280;59382;43.852;25.952;2023-02-18T11:59:38;101329.59;;;14.64;41.00
71559;BME280;59382;43.852;25.952;2023-02-18T12:04:42;101343.50;;;14.74;40.94
71559;BME280;59382;43.852;25.952;2023-02-18T12:10:00;101327.97;;;14.81;41.12
71559;BME280;59382;43.852;25.952;2023-02-18T12:12:38;101324.22;;;14.82;40.95
71559;BME280;59382;43.852;25.952;2023-02-18T12:15:11;101327.06;;;14.87;41.25
71559;BME280;59382;43.852;25.952;2023-02-18T12:20:12;101319.44;;;14.95;41.09
71559;BME280;59382;43.852;25.952;2023-02-18T12:25:34;101302.31;;;14.95;41.22
71559;BME280;59382;43.852;25.952;2023-02-18T12:36:53;101320.75;;;15.11;41.67
71559;BME280;59382;43.852;25.952;2023-02-18T12:39:43;101302.63;;;15.05;41.76
71559;BME280;59382;43.852;25.952;2023-02-18T12:42:43;101311.06;;;15.15;41.83
71559;BME280;59382;43.852;25.952;2023-02-18T12:59:47;101299.16;;;15.16;42.25
71559;BME280;59382;43.852;25.952;2023-02-18T13:13:25;101271.97;;;15.16;42.60
71559;BME280;59382;43.852;25.952;2023-02-18T13:15:58;101291.47;;;15.31;42.41
71559;BME280;59382;43.852;25.952;2023-02-18T13:18:31;101287.66;;;15.32;42.62
71559;BME280;59382;43.852;25.952;2023-02-18T13:21:07;101295.13;;;15.36;42.88
71559;BME280;59382;43.852;25.952;2023-02-18T13:23:39;101280.81;;;15.29;42.96
71559;BME280;59382;43.852;25.952;2023-02-18T13:26:10;101281.97;;;15.40;42.67
71559;BME280;59382;43.852;25.952;2023-02-18T13:29:09;101285.72;;;15.39;43.06
71559;BME280;59382;43.852;25.952;2023-02-18T13:35:16;101285.72;;;15.39;43.29
71559;BME280;59382;43.852;25.952;2023-02-18T13:40:22;101289.28;;;15.39;42.82
71559;BME280;59382;43.852;25.952;2023-02-18T13:42:53;101290.13;;;15.40;42.80
71559;BME280;59382;43.852;25.952;2023-02-18T13:45:25;101284.81;;;15.45;42.77
71559;BME280;59382;43.852;25.952;2023-02-18T13:47:51;101287.63;;;15.38;42.56
71559;BME280;59382;43.852;25.952;2023-02-18T13:55:20;101283.72;;;15.46;42.38
71559;BME280;59382;43.852;25.952;2023-02-18T13:57:48;101280.31;;;15.50;42.33
71559;BME280;59382;43.852;25.952;2023-02-18T14:00:34;101286.59;;;15.51;42.18
71559;BME280;59382;43.852;25.952;2023-02-18T14:03:49;101268.47;;;15.45;42.48
71559;BME280;59382;43.852;25.952;2023-02-18T14:06:33;101275.72;;;15.51;42.35
71559;BME280;59382;43.852;25.952;2023-02-18T14:11:39;101269.81;;;15.54;42.39
71559;BME280;59382;43.852;25.952;2023-02-18T14:19:37;101271.81;;;15.47;42.55
71559;BME280;59382;43.852;25.952;2023-02-18T14:25:21;101267.41;;;15.46;42.64
71559;BME280;59382;43.852;25.952;2023-02-18T14:27:41;101285.69;;;15.57;42.74
71559;BME280;59382;43.852;25.952;2023-02-18T14:30:24;101276.91;;;15.55;42.81
71559;BME280;59382;43.852;25.952;2023-02-18T14:32:57;101284.38;;;15.59;43.04
71559;BME280;59382;43.852;25.952;2023-02-18T14:35:36;101287.34;;;15.58;43.30
71559;BME280;59382;43.852;25.952;2023-02-18T14:38:16;101289.47;;;15.56;43.12
71559;BME280;59382;43.852;25.952;2023-02-18T14:41:17;101275.50;;;15.52;43.27
71559;BME280;59382;43.852;25.952;2023-02-18T14:49:47;101281.91;;;15.58;43.53
71559;BME280;59382;43.852;25.952;2023-02-18T14:55:01;101265.56;;;15.58;43.43
71559;BME280;59382;43.852;25.952;2023-02-18T14:57:35;101256.84;;;15.56;43.46
71559;BME280;59382;43.852;25.952;2023-02-18T15:00:03;101241.16;;;15.40;43.47
71559;BME280;59382;43.852;25.952;2023-02-18T15:02:35;101263.19;;;15.50;43.66
71559;BME280;59382;43.852;25.952;2023-02-18T15:05:18;101250.38;;;15.39;43.67
71559;BME280;59382;43.852;25.952;2023-02-18T15:08:05;101255.97;;;15.44;43.64
71559;BME280;59382;43.852;25.952;2023-02-18T15:10:58;101266.16;;;15.48;43.81
71559;BME280;59382;43.852;25.952;2023-02-18T15:13:28;101260.31;;;15.45;43.67
71559;BME280;59382;43.852;25.952;2023-02-18T15:16:01;101261.25;;;15.39;44.00
71559;BME280;59382;43.852;25.952;2023-02-18T15:18:35;101255.81;;;15.39;43.80
71559;BME280;59382;43.852;25.952;2023-02-18T15:21:03;101238.78;;;15.25;43.84
71559;BME280;59382;43.852;25.952;2023-02-18T15:23:30;101234.66;;;15.23;44.08
71559;BME280;59382;43.852;25.952;2023-02-18T15:25:59;101244.63;;;15.29;44.02
71559;BME280;59382;43.852;25.952;2023-02-18T15:28:31;101246.72;;;15.27;44.10